Time;durP1;ratioP1;P1;durP2;ratioP2;P2;SDS_P1;SDS_P2;PMS_P1;PMS_P2;Temp;Humidity;BMP_temperature;BMP_pressure;BME280_temperature;BME280_humidity;BME280_pressure;Samples;Min_cycle;Max_cycle;Signal;HPM_P1;HPM_P2
2023/08/28 00:00:05;;;;;;;3.35;2.25;;;12.20;99.90;;;;;;5054098;28;20118;-24
2023/08/28 00:02:31;;;;;;;6.95;2.70;;;12.40;99.90;;;;;;5064666;28;20044;-24
2023/08/28 00:04:57;;;;;;;6.32;2.58;;;12.40;99.90;;;;;;5053694;28;20210;-24
2023/08/28 00:07:23;;;;;;;8.15;2.20;;;12.50;99.90;;;;;;5068587;28;20512;-24
2023/08/28 00:09:49;;;;;;;4.07;2.15;;;12.60;99.90;;;;;;5073642;28;20123;-24
2023/08/28 00:12:15;;;;;;;8.65;2.75;;;12.70;99.90;;;;;;5071444;28;20486;-24
2023/08/28 00:14:41;;;;;;;6.10;2.40;;;12.40;99.90;;;;;;5072652;28;20052;-24
2023/08/28 00:17:06;;;;;;;5.63;2.60;;;12.60;99.90;;;;;;5072835;28;20048;-24
2023/08/28 00:19:33;;;;;;;5.30;2.17;;;12.30;99.90;;;;;;5058100;28;20045;-24
2023/08/28 00:21:59;;;;;;;4.53;2.50;;;12.70;99.90;;;;;;5053018;28;20383;-24
2023/08/28 00:24:24;;;;;;;4.57;2.38;;;12.60;99.90;;;;;;5054238;28;20041;-24
2023/08/28 00:26:50;;;;;;;5.35;2.88;;;12.10;99.90;;;;;;5062290;28;20041;-23
2023/08/28 00:29:16;;;;;;;5.32;2.25;;;12.20;99.90;;;;;;5040224;28;20128;-24
2023/08/28 00:31:42;;;;;;;6.45;2.20;;;12.20;99.90;;;;;;5064984;28;20083;-24
2023/08/28 00:34:08;;;;;;;4.07;2.30;;;12.20;99.90;;;;;;5059969;28;20044;-23
2023/08/28 00:36:33;;;;;;;4.30;2.33;;;12.60;99.90;;;;;;5051131;28;20045;-24
2023/08/28 00:38:59;;;;;;;5.20;2.95;;;12.60;99.90;;;;;;5035546;28;20455;-24
2023/08/28 00:41:25;;;;;;;7.45;2.20;;;12.30;99.90;;;;;;5053112;28;20419;-24
2023/08/28 00:43:50;;;;;;;4.88;2.20;;;12.60;99.90;;;;;;5051765;28;20090;-24
2023/08/28 00:46:16;;;;;;;3.15;1.98;;;12.20;99.90;;;;;;5051781;28;20403;-23
2023/08/28 00:48:42;;;;;;;4.13;2.17;;;12.20;99.90;;;;;;5052685;28;20052;-23
2023/08/28 00:51:08;;;;;;;9.98;3.65;;;12.30;99.90;;;;;;5051360;28;20052;-24
2023/08/28 00:53:35;;;;;;;7.95;2.58;;;12.20;99.90;;;;;;5051760;28;20049;-24
2023/08/28 00:56:02;;;;;;;9.68;2.95;;;12.40;99.90;;;;;;5035234;28;20064;-24
2023/08/28 00:58:27;;;;;;;14.90;3.17;;;12.40;99.90;;;;;;5061318;28;20047;-23
2023/08/28 01:00:53;;;;;;;5.43;2.15;;;12.40;99.90;;;;;;5053506;28;20045;-23
2023/08/28 01:03:19;;;;;;;3.90;2.35;;;12.40;99.90;;;;;;5064361;28;20049;-23
2023/08/28 01:06:11;;;;;;;4.38;2.60;;;12.20;99.90;;;;;;5053104;28;20055;-23
2023/08/28 01:08:45;;;;;;;5.30;2.58;;;12.20;99.90;;;;;;5073738;28;20464;-24
2023/08/28 01:11:26;;;;;;;5.63;2.55;;;12.20;99.90;;;;;;5076511;28;20486;-24
2023/08/28 01:14:01;;;;;;;6.50;2.78;;;12.20;99.90;;;;;;5076745;28;20056;-24
2023/08/28 01:16:29;;;;;;;4.82;2.25;;;12.40;99.90;;;;;;5077265;28;20052;-24
2023/08/28 01:18:57;;;;;;;4.97;2.85;;;12.20;99.90;;;;;;5072571;28;20114;-23
2023/08/28 01:21:23;;;;;;;6.78;3.00;;;12.40;99.90;;;;;;5072355;28;20040;-24
2023/08/28 01:23:57;;;;;;;5.20;2.53;;;12.30;99.90;;;;;;5075603;28;20056;-23
2023/08/28 01:26:24;;;;;;;5.38;2.78;;;11.70;99.90;;;;;;5077099;28;20055;-24
2023/08/28 01:28:50;;;;;;;5.00;2.42;;;11.90;99.90;;;;;;5075507;28;20084;-23
2023/08/28 01:31:16;;;;;;;3.92;2.80;;;11.60;99.90;;;;;;5067672;28;20049;-23
2023/08/28 01:33:43;;;;;;;6.03;3.15;;;11.30;99.90;;;;;;5056127;28;20110;-23
2023/08/28 01:36:17;;;;;;;6.50;3.10;;;11.30;99.90;;;;;;5056599;28;20120;-23
2023/08/28 01:38:58;;;;;;;4.35;3.10;;;11.40;99.90;;;;;;5056270;28;20044;-23
2023/08/28 01:41:26;;;;;;;3.97;2.63;;;11.00;99.90;;;;;;5060717;28;20040;-23
2023/08/28 01:43:57;;;;;;;5.25;3.22;;;10.70;99.90;;;;;;5068995;28;20495;-23
2023/08/28 01:46:23;;;;;;;6.72;3.15;;;10.80;99.90;;;;;;5055837;28;20048;-22
2023/08/28 01:48:53;;;;;;;4.32;3.03;;;10.90;99.90;;;;;;5060244;28;20056;-23
2023/08/28 01:51:20;;;;;;;8.05;3.63;;;10.50;99.90;;;;;;5062771;28;20045;-23
2023/08/28 01:53:47;;;;;;;14.32;4.85;;;10.20;99.90;;;;;;5055896;28;20048;-23
2023/08/28 01:56:21;;;;;;;5.85;3.97;;;10.20;99.90;;;;;;5056335;28;20060;-23
2023/08/28 01:58:57;;;;;;;8.43;4.45;;;10.90;99.90;;;;;;5056350;28;20487;-23
2023/08/28 02:01:24;;;;;;;5.63;4.53;;;10.00;99.90;;;;;;5065070;28;20052;-23
2023/08/28 02:03:50;;;;;;;7.35;4.63;;;10.20;99.90;;;;;;5061934;28;20379;-23
2023/08/28 02:06:16;;;;;;;9.10;3.95;;;10.50;99.90;;;;;;5063683;28;20128;-23
2023/08/28 02:08:42;;;;;;;8.43;5.22;;;9.80;99.90;;;;;;5054970;28;20570;-21
2023/08/28 02:11:08;;;;;;;11.23;6.07;;;10.60;99.90;;;;;;5066516;28;20041;-22
2023/08/28 02:13:34;;;;;;;17.33;6.00;;;9.80;99.90;;;;;;5060320;28;20048;-22
2023/08/28 02:16:01;;;;;;;11.23;5.43;;;9.80;99.90;;;;;;5055211;28;20509;-23
2023/08/28 02:18:27;;;;;;;11.38;4.20;;;10.80;99.90;;;;;;5037825;28;20052;-22
2023/08/28 02:20:53;;;;;;;7.68;4.22;;;9.80;99.90;;;;;;5054998;28;20506;-22
2023/08/28 02:23:19;;;;;;;5.63;4.63;;;9.70;99.90;;;;;;5066870;28;20124;-22
2023/08/28 02:25:47;;;;;;;6.60;4.53;;;9.70;99.90;;;;;;5054223;28;20578;-22
2023/08/28 02:28:12;;;;;;;9.00;5.47;;;10.70;99.90;;;;;;5057830;28;20059;-22
2023/08/28 02:30:39;;;;;;;6.90;5.03;;;10.90;99.90;;;;;;5054533;28;20131;-22
2023/08/28 02:33:05;;;;;;;9.18;5.53;;;11.00;99.90;;;;;;5054262;28;20055;-23
2023/08/28 02:35:31;;;;;;;7.38;4.85;;;10.70;99.90;;;;;;5053540;28;20052;-23
2023/08/28 02:37:57;;;;;;;10.52;5.45;;;11.10;99.90;;;;;;5054512;28;20041;-22
2023/08/28 02:40:24;;;;;;;6.95;5.05;;;11.30;99.90;;;;;;5058168;28;20041;-22
2023/08/28 02:42:50;;;;;;;7.65;4.60;;;11.90;99.90;;;;;;5054748;28;20049;-23
2023/08/28 02:45:16;;;;;;;8.48;4.80;;;11.40;99.90;;;;;;5054419;28;20136;-22
2023/08/28 02:47:41;;;;;;;6.00;4.20;;;11.10;99.90;;;;;;5054950;28;20053;-22
2023/08/28 02:50:07;;;;;;;5.28;4.43;;;11.60;99.90;;;;;;5055320;28;20391;-22
2023/08/28 02:52:33;;;;;;;7.90;4.97;;;10.90;99.90;;;;;;5053659;28;20080;-23
2023/08/28 02:54:59;;;;;;;9.48;4.18;;;10.60;99.90;;;;;;5054190;28;20100;-22
2023/08/28 02:57:24;;;;;;;5.20;4.00;;;10.40;99.90;;;;;;5054609;28;20045;-22
2023/08/28 02:59:50;;;;;;;7.40;4.30;;;11.30;99.90;;;;;;5069613;28;20036;-22
2023/08/28 03:02:16;;;;;;;22.80;4.78;;;11.20;99.90;;;;;;5065871;28;20117;-22
2023/08/28 03:04:44;;;;;;;5.05;3.92;;;11.00;99.90;;;;;;5054818;28;20045;-22
2023/08/28 03:07:10;;;;;;;10.45;4.55;;;10.30;99.90;;;;;;5066721;28;20058;-22
2023/08/28 03:09:36;;;;;;;4.32;3.92;;;10.70;99.90;;;;;;5057436;28;20044;-22
2023/08/28 03:12:02;;;;;;;6.43;4.43;;;11.10;99.90;;;;;;5068713;28;20405;-21
2023/08/28 03:14:28;;;;;;;4.88;3.65;;;10.90;99.90;;;;;;5054500;28;20053;-22
2023/08/28 03:16:53;;;;;;;7.03;4.70;;;11.10;99.90;;;;;;5053429;28;20052;-22
2023/08/28 03:19:19;;;;;;;5.38;3.45;;;11.10;99.90;;;;;;5054094;28;20402;-22
2023/08/28 03:21:45;;;;;;;7.30;4.30;;;10.10;99.90;;;;;;5037875;28;20049;-22
2023/08/28 03:24:10;;;;;;;6.35;4.82;;;10.40;99.90;;;;;;5053988;28;20041;-22
2023/08/28 03:26:36;;;;;;;10.25;4.07;;;11.70;99.90;;;;;;5052523;28;20047;-22
2023/08/28 03:29:03;;;;;;;6.88;4.85;;;11.90;99.90;;;;;;5039418;28;20044;-22
2023/08/28 03:31:30;;;;;;;9.32;5.68;;;11.80;99.90;;;;;;5053720;28;20088;-22
2023/08/28 03:33:56;;;;;;;8.80;5.80;;;11.90;99.90;;;;;;5070480;28;20116;-22
2023/08/28 03:36:22;;;;;;;9.05;6.13;;;11.10;99.90;;;;;;5054061;28;20045;-22
2023/08/28 03:38:47;;;;;;;11.45;6.07;;;11.40;99.90;;;;;;5053613;28;20475;-21
2023/08/28 03:41:13;;;;;;;6.78;5.55;;;10.90;99.90;;;;;;5057123;28;20048;-22
2023/08/28 03:43:39;;;;;;;7.35;5.57;;;10.70;99.90;;;;;;5059178;28;20044;-22
2023/08/28 03:46:05;;;;;;;8.30;5.40;;;11.40;99.90;;;;;;5074173;28;20052;-22
2023/08/28 03:48:30;;;;;;;8.10;5.43;;;11.50;99.90;;;;;;5057172;28;20482;-22
2023/08/28 03:50:56;;;;;;;6.90;4.78;;;11.00;99.90;;;;;;5053720;28;20056;-22
2023/08/28 03:53:22;;;;;;;7.88;4.50;;;10.30;99.90;;;;;;5054386;28;20048;-23
2023/08/28 03:55:48;;;;;;;9.50;4.95;;;10.50;99.90;;;;;;5053583;28;20124;-23
2023/08/28 03:58:14;;;;;;;6.68;5.30;;;10.90;99.90;;;;;;5061142;28;20132;-23
2023/08/28 04:00:39;;;;;;;6.43;5.25;;;10.30;99.90;;;;;;5064210;28;20052;-23
2023/08/28 04:03:05;;;;;;;6.55;5.20;;;11.20;99.90;;;;;;5073716;28;20048;-22
2023/08/28 04:05:35;;;;;;;8.23;5.18;;;10.40;99.90;;;;;;5057144;28;20084;-23
2023/08/28 04:08:01;;;;;;;6.00;5.07;;;10.70;99.90;;;;;;5053128;28;20389;-22
2023/08/28 04:10:27;;;;;;;7.18;5.72;;;10.30;99.90;;;;;;5057556;28;20087;-22
2023/08/28 04:12:53;;;;;;;11.32;6.22;;;11.50;99.90;;;;;;5062220;28;20081;-23
2023/08/28 04:15:19;;;;;;;8.38;6.00;;;11.40;99.90;;;;;;5053325;28;20124;-22
2023/08/28 04:17:45;;;;;;;9.93;5.78;;;10.40;99.90;;;;;;5052546;28;20055;-23
2023/08/28 04:20:13;;;;;;;7.38;5.43;;;10.80;99.90;;;;;;5053150;28;20045;-23
2023/08/28 04:22:43;;;;;;;7.85;5.60;;;11.60;99.90;;;;;;5069708;28;20093;-23
2023/08/28 04:25:13;;;;;;;11.07;5.88;;;10.60;99.90;;;;;;5052288;28;20040;-23
2023/08/28 04:27:40;;;;;;;10.50;6.18;;;10.60;99.90;;;;;;5060755;28;20056;-23
2023/08/28 04:30:07;;;;;;;9.13;6.32;;;11.60;99.90;;;;;;5051914;28;20061;-23
2023/08/28 04:32:34;;;;;;;10.70;6.32;;;11.40;99.90;;;;;;5064246;28;20044;-23
2023/08/28 04:34:59;;;;;;;7.82;5.88;;;11.30;99.90;;;;;;5062072;28;20048;-23
2023/08/28 04:37:26;;;;;;;10.57;6.68;;;11.20;99.90;;;;;;5056723;28;20036;-23
2023/08/28 04:39:52;;;;;;;8.55;6.32;;;12.10;99.90;;;;;;5051735;28;20503;-23
2023/08/28 04:42:19;;;;;;;10.35;6.90;;;12.10;99.90;;;;;;5052217;28;20049;-23
2023/08/28 04:44:45;;;;;;;11.88;7.00;;;12.00;99.90;;;;;;5056576;28;20119;-23
2023/08/28 04:47:12;;;;;;;11.00;6.72;;;11.20;99.90;;;;;;5057798;28;20472;-23
2023/08/28 04:49:37;;;;;;;10.23;6.07;;;11.20;99.90;;;;;;5056054;28;20479;-23
2023/08/28 04:52:03;;;;;;;9.32;6.57;;;12.00;99.90;;;;;;5057034;28;20052;-24
2023/08/28 04:54:29;;;;;;;10.27;6.30;;;11.00;99.90;;;;;;5056921;28;20064;-23
2023/08/28 04:56:57;;;;;;;6.75;5.88;;;11.10;99.90;;;;;;5056542;28;20419;-23
2023/08/28 04:59:23;;;;;;;10.27;4.88;;;11.30;99.90;;;;;;5055771;28;20106;-23
2023/08/28 05:01:48;;;;;;;8.40;5.13;;;10.70;99.90;;;;;;5063571;28;20048;-21
2023/08/28 05:04:14;;;;;;;5.90;4.85;;;10.80;99.90;;;;;;5074785;28;20371;-23
2023/08/28 05:06:40;;;;;;;7.25;5.05;;;10.50;99.90;;;;;;5061946;28;20040;-23
2023/08/28 05:09:05;;;;;;;6.95;5.25;;;10.40;99.90;;;;;;5072033;28;20040;-23
2023/08/28 05:11:31;;;;;;;7.90;5.03;;;10.60;99.90;;;;;;5056765;28;20045;-23
2023/08/28 05:13:57;;;;;;;9.73;5.78;;;11.40;99.90;;;;;;5056393;28;20041;-23
2023/08/28 05:16:23;;;;;;;6.97;4.65;;;11.40;99.90;;;;;;5056678;28;20053;-24
2023/08/28 05:18:49;;;;;;;7.97;5.00;;;10.40;99.90;;;;;;5070122;28;20123;-23
2023/08/28 05:21:15;;;;;;;8.07;5.43;;;11.40;99.90;;;;;;5056165;28;20471;-23
2023/08/28 05:23:41;;;;;;;7.32;5.10;;;11.20;99.90;;;;;;5045269;28;20056;-23
2023/08/28 05:26:07;;;;;;;7.13;5.57;;;11.40;99.90;;;;;;5057556;28;20056;-24
2023/08/28 05:28:35;;;;;;;8.65;5.78;;;11.50;99.90;;;;;;5056148;28;20403;-24
2023/08/28 05:31:04;;;;;;;7.15;5.18;;;10.40;99.90;;;;;;5062759;28;20064;-23
2023/08/28 05:33:31;;;;;;;8.82;5.90;;;11.40;99.90;;;;;;5056204;28;20052;-23
2023/08/28 05:35:57;;;;;;;7.47;5.43;;;11.60;99.90;;;;;;5070519;28;20469;-23
2023/08/28 05:38:22;;;;;;;9.48;6.15;;;10.60;99.90;;;;;;5059661;28;20045;-24
2023/08/28 05:40:48;;;;;;;7.50;5.72;;;10.60;99.90;;;;;;5056073;28;20124;-24
2023/08/28 05:43:14;;;;;;;7.15;6.38;;;10.70;99.90;;;;;;5055189;28;20128;-23
2023/08/28 05:45:39;;;;;;;8.57;6.20;;;12.00;99.90;;;;;;5058771;28;20549;-23
2023/08/28 05:48:06;;;;;;;9.05;7.18;;;11.70;99.90;;;;;;5063493;28;20098;-23
2023/08/28 05:50:31;;;;;;;11.43;7.25;;;11.40;99.90;;;;;;5057139;28;20550;-24
2023/08/28 05:52:57;;;;;;;8.40;6.45;;;12.00;99.90;;;;;;5056647;28;20127;-24
2023/08/28 05:55:23;;;;;;;8.63;6.63;;;11.30;99.90;;;;;;5055031;28;20084;-24
2023/08/28 05:57:48;;;;;;;10.40;7.70;;;12.20;99.90;;;;;;5055666;28;20552;-24
2023/08/28 06:00:14;;;;;;;9.73;7.20;;;11.50;99.90;;;;;;5056052;28;20425;-23
2023/08/28 06:02:41;;;;;;;8.32;6.28;;;11.90;99.90;;;;;;5061593;28;20040;-24
2023/08/28 06:05:07;;;;;;;7.22;5.72;;;12.60;99.90;;;;;;5075778;28;20044;-24
2023/08/28 06:07:34;;;;;;;8.18;5.90;;;12.70;99.90;;;;;;5064753;28;20055;-23
2023/08/28 06:10:00;;;;;;;8.90;6.05;;;12.10;99.90;;;;;;5054805;28;20106;-23
2023/08/28 06:12:25;;;;;;;6.85;5.65;;;12.60;99.90;;;;;;5054661;28;20041;-24
2023/08/28 06:14:51;;;;;;;8.25;5.95;;;13.00;99.90;;;;;;5055874;28;20211;-24
2023/08/28 06:17:17;;;;;;;7.65;5.30;;;12.60;99.90;;;;;;5055248;28;20095;-23
2023/08/28 06:19:43;;;;;;;6.82;4.95;;;13.00;99.90;;;;;;5062271;28;20040;-23
2023/08/28 06:22:08;;;;;;;6.50;4.60;;;13.20;99.90;;;;;;5061051;28;20052;-23
2023/08/28 06:24:34;;;;;;;6.97;4.80;;;13.50;99.90;;;;;;5055440;28;20136;-23
2023/08/28 06:27:00;;;;;;;5.82;4.50;;;13.20;99.90;;;;;;5054183;28;20391;-24
2023/08/28 06:29:26;;;;;;;6.47;4.82;;;13.50;99.90;;;;;;5055061;28;20052;-23
2023/08/28 06:31:53;;;;;;;7.78;4.53;;;13.70;99.90;;;;;;5054319;28;20100;-23
2023/08/28 06:34:18;;;;;;;7.28;4.05;;;13.60;99.90;;;;;;5055255;28;20041;-24
2023/08/28 06:36:45;;;;;;;12.07;4.63;;;13.60;99.90;;;;;;5055214;28;20102;-23
2023/08/28 06:39:11;;;;;;;6.45;3.30;;;13.70;99.90;;;;;;5054223;28;20053;-23
2023/08/28 06:41:38;;;;;;;7.85;3.38;;;13.90;99.90;;;;;;5037314;28;20067;-23
2023/08/28 06:44:04;;;;;;;9.95;3.47;;;14.00;99.90;;;;;;5053712;28;20098;-23
2023/08/28 06:46:31;;;;;;;5.65;3.15;;;14.10;99.90;;;;;;5054069;28;20041;-23
2023/08/28 06:48:56;;;;;;;5.28;3.22;;;14.20;99.90;;;;;;5053748;28;20057;-23
2023/08/28 06:51:23;;;;;;;5.25;3.08;;;14.30;99.90;;;;;;5055434;28;20059;-23
2023/08/28 06:53:49;;;;;;;3.95;2.60;;;14.40;99.90;;;;;;5061022;28;20048;-23
2023/08/28 06:56:15;;;;;;;9.25;2.72;;;14.50;99.90;;;;;;5056588;28;20522;-23
2023/08/28 06:58:41;;;;;;;6.28;2.58;;;14.60;99.90;;;;;;5052917;28;20075;-23
2023/08/28 07:01:07;;;;;;;3.67;2.38;;;14.70;99.90;;;;;;5057947;28;20037;-23
2023/08/28 07:03:33;;;;;;;9.30;2.63;;;14.70;99.90;;;;;;5063223;28;20063;-22
2023/08/28 07:05:59;;;;;;;8.25;2.38;;;14.80;99.90;;;;;;5060744;28;20071;-23
2023/08/28 07:08:25;;;;;;;4.25;2.42;;;14.90;99.90;;;;;;5059385;28;20037;-23
2023/08/28 07:10:50;;;;;;;4.00;3.10;;;15.00;99.90;;;;;;5056522;28;20037;-24
2023/08/28 07:13:17;;;;;;;6.53;2.30;;;15.10;99.90;;;;;;5058339;28;20044;-23
2023/08/28 07:15:42;;;;;;;2.45;2.00;;;15.20;99.90;;;;;;5064583;28;20083;-23
2023/08/28 07:18:08;;;;;;;5.13;2.50;;;15.40;99.90;;;;;;5057222;28;20080;-23
2023/08/28 07:20:35;;;;;;;5.97;2.72;;;15.50;99.90;;;;;;5054234;28;20138;-24
2023/08/28 07:23:01;;;;;;;3.88;2.10;;;15.60;99.90;;;;;;5054271;28;20049;-23
2023/08/28 07:25:27;;;;;;;5.18;1.77;;;15.70;99.90;;;;;;5036819;28;20387;-24
2023/08/28 07:27:54;;;;;;;3.10;2.08;;;15.70;99.90;;;;;;5054228;28;20084;-23
2023/08/28 07:30:20;;;;;;;3.28;1.90;;;15.80;99.90;;;;;;5054268;28;20130;-23
2023/08/28 07:32:46;;;;;;;5.10;1.75;;;15.90;99.90;;;;;;5054186;28;20126;-23
2023/08/28 07:35:12;;;;;;;5.47;1.50;;;16.00;99.90;;;;;;5053782;28;20414;-23
2023/08/28 07:37:38;;;;;;;3.88;1.23;;;16.20;99.90;;;;;;5054032;28;20044;-23
2023/08/28 07:40:05;;;;;;;2.72;1.20;;;16.30;99.90;;;;;;5053257;28;20051;-24
2023/08/28 07:42:32;;;;;;;3.05;0.90;;;16.30;99.90;;;;;;5036326;28;20110;-23
2023/08/28 07:44:59;;;;;;;5.10;1.13;;;16.40;99.90;;;;;;5054021;28;20045;-23
2023/08/28 07:47:25;;;;;;;2.15;1.20;;;16.50;99.90;;;;;;5052949;28;20045;-23
2023/08/28 07:49:50;;;;;;;1.85;0.70;;;16.50;99.90;;;;;;5052902;28;20111;-23
2023/08/28 07:52:16;;;;;;;6.38;1.10;;;16.60;99.90;;;;;;5052304;28;20507;-24
2023/08/28 07:54:42;;;;;;;2.58;0.88;;;16.70;99.90;;;;;;5053141;28;20045;-23
2023/08/28 07:57:08;;;;;;;2.95;1.10;;;16.80;99.90;;;;;;5054296;28;20111;-24
2023/08/28 07:59:33;;;;;;;4.70;1.05;;;16.80;99.90;;;;;;5036215;28;20084;-23
2023/08/28 08:01:59;;;;;;;1.27;0.50;;;16.90;99.90;;;;;;5020570;28;20440;-23
2023/08/28 08:04:26;;;;;;;3.13;0.60;;;17.00;99.90;;;;;;5054235;28;20093;-24
2023/08/28 08:06:52;;;;;;;2.88;0.60;;;17.10;99.90;;;;;;5053909;28;20391;-23
2023/08/28 08:09:17;;;;;;;1.75;0.40;;;17.30;99.90;;;;;;5052679;28;20053;-24
2023/08/28 08:11:43;;;;;;;2.40;0.73;;;17.30;1.00;;;;;;5052325;28;20048;-24
2023/08/28 08:14:09;;;;;;;1.73;0.70;;;17.20;99.90;;;;;;5053816;28;20090;-23
2023/08/28 08:16:35;;;;;;;1.27;0.50;;;17.20;59.80;;;;;;5053562;28;20135;-23
2023/08/28 08:19:01;;;;;;;1.67;0.38;;;17.20;18.90;;;;;;5053068;28;20049;-23
2023/08/28 08:21:26;;;;;;;2.38;0.20;;;17.30;1.00;;;;;;5053944;28;20124;-23
2023/08/28 08:23:52;;;;;;;3.40;0.30;;;17.40;99.90;;;;;;5052193;28;20052;-23
2023/08/28 08:26:19;;;;;;;1.50;0.40;;;17.50;99.90;;;;;;5052492;28;20051;-23
2023/08/28 08:28:45;;;;;;;1.20;0.40;;;17.50;99.90;;;;;;5053464;28;20402;-24
2023/08/28 08:31:10;;;;;;;9.65;0.65;;;17.60;99.90;;;;;;5052081;28;20067;-23
2023/08/28 08:33:38;;;;;;;2.95;0.50;;;17.80;99.90;;;;;;5053429;28;20053;-24
2023/08/28 08:36:05;;;;;;;3.15;0.47;;;17.90;1.00;;;;;;5053365;28;20053;-24
2023/08/28 08:38:30;;;;;;;2.75;0.70;;;18.10;99.90;;;;;;5036783;28;20056;-24
2023/08/28 08:40:58;;;;;;;2.42;0.50;;;18.30;1.00;;;;;;5053166;28;20061;-24
2023/08/28 08:43:28;;;;;;;2.03;0.40;;;18.60;99.90;;;;;;5052440;28;20538;-25
2023/08/28 08:46:03;;;;;;;2.00;0.40;;;18.70;99.90;;;;;;5053267;28;20041;-24
2023/08/28 08:48:32;;;;;;;3.25;0.47;;;18.70;99.90;;;;;;5053914;28;20055;-25
2023/08/28 08:51:06;;;;;;;3.22;0.50;;;18.50;1.00;;;;;;5053226;28;20067;-25
2023/08/28 08:54:17;;;;;;;4.30;0.55;;;18.20;1.00;;;;;;5053906;28;20182;-24
2023/08/28 08:56:43;;;;;;;1.13;0.40;;;17.80;99.90;;;;;;5053246;28;20041;-24
2023/08/28 08:59:10;;;;;;;5.93;0.60;;;17.50;93.50;;;;;;5053725;28;20418;-24
2023/08/28 09:01:37;;;;;;;1.73;0.50;;;17.30;99.90;;;;;;5035452;28;20052;-24
2023/08/28 09:04:04;;;;;;;3.75;0.90;;;17.20;99.90;;;;;;5053419;28;20064;-24
2023/08/28 09:06:34;;;;;;;2.75;0.47;;;17.40;1.00;;;;;;5018818;28;20137;-24
2023/08/28 09:09:00;;;;;;;6.50;0.47;;;18.40;1.00;;;;;;5053026;28;20051;-26
2023/08/28 09:11:26;;;;;;;5.35;0.60;;;19.70;1.00;;;;;;5053593;28;20045;-25
2023/08/28 09:13:51;;;;;;;2.60;0.45;;;20.80;99.90;;;;;;5053599;28;20560;-24
2023/08/28 09:16:20;;;;;;;1.75;0.43;;;21.30;1.00;;;;;;5035339;28;20049;-25
2023/08/28 09:18:47;;;;;;;5.50;0.80;;;20.90;99.90;;;;;;5052991;28;20048;-24
2023/08/28 09:21:13;;;;;;;5.20;1.05;;;19.20;99.90;;;;;;5051711;28;20059;-24
2023/08/28 09:23:43;;;;;;;4.75;0.80;;;17.60;1.00;;;;;;5052919;28;20052;-23
2023/08/28 09:26:18;;;;;;;3.95;0.70;;;16.60;62.00;;;;;;5035435;28;20052;-24
2023/08/28 09:29:06;;;;;;;3.05;0.60;;;15.90;92.00;;;;;;5053092;28;20089;-23
2023/08/28 09:31:37;;;;;;;2.03;0.93;;;15.50;99.90;;;;;;5055718;28;20132;-23
2023/08/28 09:34:04;;;;;;;2.00;0.60;;;15.40;99.90;;;;;;5055772;28;20049;-23
2023/08/28 09:36:37;;;;;;;3.17;0.70;;;15.50;99.90;;;;;;5056336;28;20052;-23
2023/08/28 09:39:04;;;;;;;3.80;0.60;;;15.40;99.90;;;;;;5056332;28;20128;-23
2023/08/28 09:41:45;;;;;;;3.20;0.80;;;15.40;99.90;;;;;;5056506;28;20080;-24
2023/08/28 09:44:13;;;;;;;2.53;0.80;;;15.60;99.90;;;;;;5055723;28;20110;-24
2023/08/28 09:46:42;;;;;;;2.90;0.85;;;15.70;99.90;;;;;;5056744;28;20048;-24
2023/08/28 09:49:09;;;;;;;3.97;1.02;;;15.80;99.90;;;;;;5056385;28;20388;-24
2023/08/28 09:51:56;;;;;;;2.80;1.35;;;15.90;99.90;;;;;;5056051;28;20454;-24
2023/08/28 09:54:23;;;;;;;2.38;1.00;;;16.00;99.90;;;;;;5056027;28;20053;-24
2023/08/28 09:56:49;;;;;;;4.45;1.13;;;16.10;99.90;;;;;;5055972;28;20056;-25
2023/08/28 09:59:15;;;;;;;3.03;1.13;;;16.30;99.90;;;;;;5055968;28;20045;-25
2023/08/28 10:01:41;;;;;;;2.60;0.60;;;16.30;99.90;;;;;;5055829;28;20052;-25
2023/08/28 10:04:12;;;;;;;3.25;0.80;;;16.50;99.90;;;;;;5055838;28;20098;-25
2023/08/28 10:06:49;;;;;;;1.73;1.10;;;16.60;99.90;;;;;;5056344;28;20085;-25
2023/08/28 10:09:19;;;;;;;2.90;0.82;;;16.80;99.90;;;;;;5055642;28;20124;-25
2023/08/28 10:11:46;;;;;;;4.53;1.05;;;17.00;99.90;;;;;;5055657;28;20044;-25
2023/08/28 10:14:13;;;;;;;3.90;1.50;;;17.10;99.90;;;;;;5038134;28;20110;-25
2023/08/28 10:16:47;;;;;;;5.18;1.08;;;17.20;99.90;;;;;;5055458;28;20119;-26
2023/08/28 10:19:21;;;;;;;3.58;0.80;;;17.50;99.90;;;;;;5055469;28;20187;-25
2023/08/28 10:21:48;;;;;;;1.90;1.00;;;17.60;99.90;;;;;;5055474;28;20053;-26
2023/08/28 10:24:16;;;;;;;2.28;0.43;;;17.90;99.90;;;;;;5055525;28;20414;-26
2023/08/28 10:26:44;;;;;;;4.05;0.90;;;18.10;99.90;;;;;;5055970;28;20052;-26
2023/08/28 10:29:10;;;;;;;3.75;0.95;;;18.30;99.90;;;;;;5055458;28;20495;-26
2023/08/28 10:31:37;;;;;;;2.78;0.65;;;18.70;99.90;;;;;;5055808;28;20045;-26
2023/08/28 10:34:06;;;;;;;1.60;0.40;;;19.60;99.90;;;;;;5055270;28;20495;-26
2023/08/28 10:36:32;;;;;;;3.22;0.70;;;20.90;88.60;;;;;;5054286;28;20084;-26
2023/08/28 10:39:01;;;;;;;3.50;0.73;;;22.00;99.90;;;;;;5038252;28;20045;-27
2023/08/28 10:41:28;;;;;;;8.65;1.60;;;22.30;99.90;;;;;;5053107;28;20469;-27
2023/08/28 10:43:54;;;;;;;2.50;0.70;;;22.40;99.90;;;;;;5054176;28;20040;-27
2023/08/28 10:46:21;;;;;;;3.05;0.73;;;24.00;99.90;;;;;;5055079;28;20106;-27
2023/08/28 10:48:47;;;;;;;5.22;0.95;;;23.20;99.90;;;;;;5054975;28;20517;-25
2023/08/28 10:51:14;;;;;;;2.83;0.73;;;21.30;1.00;;;;;;5054821;28;20041;-23
2023/08/28 10:53:40;;;;;;;4.72;1.27;;;19.90;1.00;;;;;;5054898;28;20044;-23
2023/08/28 10:56:06;;;;;;;2.45;0.75;;;19.00;99.90;;;;;;5054871;28;20071;-23
2023/08/28 10:58:38;;;;;;;1.23;0.50;;;18.40;1.00;;;;;;5055315;28;20049;-22
2023/08/28 11:01:17;;;;;;;1.83;0.53;;;17.90;99.90;;;;;;5055241;28;20099;-22
2023/08/28 11:03:58;;;;;;;2.85;0.82;;;17.60;1.00;;;;;;5054672;28;20052;-22
2023/08/28 11:06:42;;;;;;;8.05;0.60;;;17.50;54.90;;;;;;5054665;28;20052;-22
2023/08/28 11:09:26;;;;;;;1.75;0.65;;;17.40;76.90;;;;;;5054658;28;20054;-22
2023/08/28 11:12:13;;;;;;;3.45;0.50;;;17.50;99.90;;;;;;5054938;28;20095;-22
2023/08/28 11:14:41;;;;;;;3.67;0.70;;;17.40;1.00;;;;;;5053955;28;20091;-22
2023/08/28 11:17:11;;;;;;;0.93;0.60;;;17.70;1.00;;;;;;5053475;28;20052;-23
2023/08/28 11:19:55;;;;;;;2.42;0.60;;;18.90;99.90;;;;;;5054849;28;20398;-24
2023/08/28 11:22:32;;;;;;;2.20;0.60;;;20.50;1.00;;;;;;5053911;28;20056;-25
2023/08/28 11:24:58;;;;;;;2.85;0.60;;;21.10;1.00;;;;;;5055051;28;20120;-26
2023/08/28 11:27:48;;;;;;;3.53;0.88;;;21.50;99.90;;;;;;5054233;28;20045;-26
2023/08/28 11:30:19;;;;;;;3.55;0.80;;;21.90;99.90;;;;;;5054097;28;20065;-26
2023/08/28 11:32:52;;;;;;;4.10;0.50;;;22.50;1.00;;;;;;5053081;28;20621;-26
2023/08/28 11:35:18;;;;;;;1.90;0.50;;;22.80;99.90;;;;;;5054451;28;20531;-26
2023/08/28 11:37:55;;;;;;;2.70;1.02;;;22.90;67.50;;;;;;5053094;28;20055;-26
2023/08/28 11:40:23;;;;;;;4.00;0.47;;;22.80;1.00;;;;;;5053119;28;20049;-26
2023/08/28 11:42:59;;;;;;;1.25;0.30;;;22.60;15.70;;;;;;5054020;28;20452;-26
2023/08/28 11:45:25;;;;;;;1.75;0.38;;;22.30;90.50;;;;;;5054558;28;20045;-26
2023/08/28 11:47:50;;;;;;;2.72;0.57;;;22.90;99.90;;;;;;5054725;28;20056;-26
2023/08/28 11:50:19;;;;;;;2.55;0.85;;;22.90;99.90;;;;;;5054438;28;20083;-26
2023/08/28 11:52:49;;;;;;;3.67;0.40;;;21.70;1.00;;;;;;5052940;28;20052;-26
2023/08/28 11:55:14;;;;;;;2.85;0.45;;;21.50;1.00;;;;;;5054354;28;20045;-28
2023/08/28 11:57:42;;;;;;;2.42;0.38;;;21.60;1.00;;;;;;5052671;28;20099;-27
2023/08/28 12:00:11;;;;;;;2.20;0.40;;;22.20;99.90;;;;;;5020017;28;20041;-26
2023/08/28 12:02:40;;;;;;;3.58;0.20;;;22.20;1.00;;;;;;5052448;28;20384;-27
2023/08/28 12:05:07;;;;;;;2.03;0.32;;;21.90;99.90;;;;;;5053955;28;20502;-27
2023/08/28 12:07:32;;;;;;;2.15;0.30;;;21.30;99.90;;;;;;5035691;28;20139;-26
2023/08/28 12:09:59;;;;;;;1.27;0.50;;;20.70;1.00;;;;;;5053621;28;20146;-26
2023/08/28 12:12:26;;;;;;;2.67;0.30;;;20.30;99.90;;;;;;5053543;28;20402;-26
2023/08/28 12:14:53;;;;;;;3.00;0.32;;;19.90;99.90;;;;;;5052384;28;20170;-26
2023/08/28 12:17:22;;;;;;;1.38;0.35;;;19.80;1.00;;;;;;5035778;28;20513;-26
2023/08/28 12:19:52;;;;;;;1.63;0.20;;;20.00;99.90;;;;;;5053478;28;20099;-26
2023/08/28 12:22:21;;;;;;;1.40;0.30;;;20.70;99.90;;;;;;5053521;28;20045;-26
2023/08/28 12:24:51;;;;;;;2.28;0.57;;;21.90;1.00;;;;;;5052553;28;20045;-26
2023/08/28 12:27:26;;;;;;;0.70;0.20;;;22.90;71.10;;;;;;5053813;28;20051;-27
2023/08/28 12:29:56;;;;;;;1.50;0.30;;;22.60;1.00;;;;;;5053350;28;20088;-25
2023/08/28 12:32:22;;;;;;;1.48;0.40;;;22.30;1.00;;;;;;5036314;28;20498;-27
2023/08/28 12:34:48;;;;;;;0.88;0.28;;;22.40;99.90;;;;;;5052495;28;20434;-26
2023/08/28 12:37:15;;;;;;;1.00;0.40;;;23.20;99.90;;;;;;5053432;28;20488;-27
2023/08/28 12:39:49;;;;;;;1.02;0.30;;;24.00;99.90;;;;;;5053373;28;20053;-26
2023/08/28 12:42:17;;;;;;;3.15;0.30;;;23.90;99.90;;;;;;5053334;28;20479;-26
2023/08/28 12:44:43;;;;;;;2.55;0.28;;;23.50;99.90;;;;;;5053394;28;20057;-26
2023/08/28 12:47:14;;;;;;;0.57;0.20;;;23.50;99.90;;;;;;5052353;28;20049;-26
2023/08/28 12:49:40;;;;;;;1.80;0.30;;;23.20;99.90;;;;;;5053343;28;20115;-26